GEC8502 EDDK-EDDM
Flight info
| Callsign | GEC8502 |
|---|---|
| Flight time | 0h 43m |
| Altitude | 27000 |
| Route | KUMIK2Q KUMIK Y854 BOMBI T104 ROKIL ROKIL1A |
| Aircraft | B742/H-SDFHIRWXY/L |
Departure
| Time | 2026-05-01 07:42 |
|---|---|
| Airport | Cologne Bonn Airport (EDDK) |
Arrival
| Time | 2026-05-01 08:26 |
|---|---|
| Airport | Munich Airport (EDDM) |
| Time | Latitude | Longitude | Altitude | Speed | Heading |
|---|---|---|---|---|---|
| 2026-05-01 07:25 | 50.87489 | 7.12910 | 240 ft | 0 kts | 227° |
| 2026-05-01 07:34 | 50.87489 | 7.12911 | 240 ft | 0 kts | 227° |
| 2026-05-01 07:35 | 50.87491 | 7.12914 | 240 ft | 2 kts | 227° |
| 2026-05-01 07:35 | 50.87501 | 7.12932 | 240 ft | 2 kts | 227° |
| 2026-05-01 07:35 | 50.87512 | 7.12950 | 240 ft | 2 kts | 227° |
| 2026-05-01 07:35 | 50.87522 | 7.12971 | 240 ft | 2 kts | 244° |
| 2026-05-01 07:36 | 50.87527 | 7.12996 | 240 ft | 2 kts | 261° |
| 2026-05-01 07:36 | 50.87528 | 7.13019 | 240 ft | 2 kts | 275° |
| 2026-05-01 07:36 | 50.87524 | 7.13042 | 240 ft | 2 kts | 290° |
| 2026-05-01 07:36 | 50.87518 | 7.13063 | 240 ft | 2 kts | 304° |
| 2026-05-01 07:37 | 50.87506 | 7.13083 | 240 ft | 0 kts | 318° |
| 2026-05-01 07:39 | 50.87507 | 7.13083 | 240 ft | 0 kts | 318° |
| 2026-05-01 07:39 | 50.87568 | 7.12992 | 240 ft | 15 kts | 315° |
| 2026-05-01 07:40 | 50.87658 | 7.12854 | 240 ft | 17 kts | 315° |
| 2026-05-01 07:40 | 50.87751 | 7.12716 | 240 ft | 16 kts | 317° |
| 2026-05-01 07:40 | 50.87851 | 7.12608 | 240 ft | 18 kts | 345° |
| 2026-05-01 07:40 | 50.87965 | 7.12656 | 240 ft | 17 kts | 49° |
| 2026-05-01 07:41 | 50.88010 | 7.12845 | 240 ft | 19 kts | 81° |
| 2026-05-01 07:41 | 50.87990 | 7.12998 | 240 ft | 4 kts | 140° |
| 2026-05-01 07:41 | 50.87982 | 7.13009 | 240 ft | 10 kts | 140° |
| 2026-05-01 07:42 | 50.87741 | 7.13359 | 240 ft | 83 kts | 137° |
| 2026-05-01 07:42 | 50.87138 | 7.14227 | 254 ft | 147 kts | 137° |
| 2026-05-01 07:42 | 50.86287 | 7.15444 | 485 ft | 178 kts | 137° |
| 2026-05-01 07:42 | 50.85352 | 7.16843 | 1004 ft | 194 kts | 136° |
| 2026-05-01 07:43 | 50.84333 | 7.18312 | 1642 ft | 207 kts | 134° |
| 2026-05-01 07:43 | 50.83671 | 7.20329 | 2367 ft | 211 kts | 98° |
| 2026-05-01 07:43 | 50.84070 | 7.24931 | 3384 ft | 216 kts | 94° |
| 2026-05-01 07:44 | 50.83660 | 7.29881 | 4108 ft | 247 kts | 105° |
| 2026-05-01 07:44 | 50.82716 | 7.35557 | 4717 ft | 288 kts | 107° |
| 2026-05-01 07:45 | 50.82151 | 7.38692 | 5159 ft | 304 kts | 107° |
| 2026-05-01 07:45 | 50.81553 | 7.41972 | 5668 ft | 317 kts | 107° |
| 2026-05-01 07:45 | 50.80931 | 7.45368 | 6175 ft | 331 kts | 107° |
| 2026-05-01 07:45 | 50.80286 | 7.48882 | 6679 ft | 343 kts | 107° |
| 2026-05-01 07:46 | 50.79612 | 7.52546 | 7182 ft | 356 kts | 107° |
| 2026-05-01 07:46 | 50.78885 | 7.56324 | 7928 ft | 359 kts | 110° |
| 2026-05-01 07:46 | 50.76060 | 7.62747 | 9432 ft | 367 kts | 133° |
| 2026-05-01 07:47 | 50.74221 | 7.65547 | 10162 ft | 371 kts | 136° |
| 2026-05-01 07:47 | 50.72302 | 7.68317 | 10853 ft | 377 kts | 136° |
| 2026-05-01 07:47 | 50.70347 | 7.71118 | 11545 ft | 381 kts | 136° |
| 2026-05-01 07:47 | 50.68382 | 7.73941 | 12227 ft | 385 kts | 136° |
| 2026-05-01 07:48 | 50.64549 | 7.79476 | 13484 ft | 394 kts | 135° |
| 2026-05-01 07:48 | 50.62532 | 7.82393 | 14118 ft | 398 kts | 135° |
| 2026-05-01 07:48 | 50.60482 | 7.85356 | 14767 ft | 401 kts | 135° |
| 2026-05-01 07:49 | 50.58421 | 7.88333 | 15386 ft | 405 kts | 135° |
| 2026-05-01 07:49 | 50.54240 | 7.94358 | 16589 ft | 413 kts | 135° |
| 2026-05-01 07:49 | 50.52142 | 7.97377 | 17157 ft | 417 kts | 135° |
| 2026-05-01 07:50 | 50.49994 | 8.00461 | 17725 ft | 421 kts | 135° |
| 2026-05-01 07:50 | 50.45654 | 8.06685 | 18838 ft | 429 kts | 135° |
| 2026-05-01 07:50 | 50.43438 | 8.09855 | 19352 ft | 433 kts | 135° |
| 2026-05-01 07:51 | 50.41211 | 8.13039 | 19888 ft | 437 kts | 135° |
| 2026-05-01 07:51 | 50.38974 | 8.16230 | 20375 ft | 441 kts | 135° |
| 2026-05-01 07:51 | 50.36687 | 8.19489 | 20867 ft | 445 kts | 135° |
| 2026-05-01 07:52 | 50.32103 | 8.26010 | 21801 ft | 452 kts | 135° |
| 2026-05-01 07:52 | 50.29745 | 8.29356 | 22269 ft | 455 kts | 135° |
| 2026-05-01 07:52 | 50.27404 | 8.32675 | 22715 ft | 458 kts | 135° |
| 2026-05-01 07:53 | 50.22658 | 8.39389 | 23569 ft | 464 kts | 135° |
| 2026-05-01 07:53 | 50.20290 | 8.42732 | 23932 ft | 467 kts | 135° |
| 2026-05-01 07:53 | 50.17886 | 8.46120 | 24284 ft | 470 kts | 135° |
| 2026-05-01 07:53 | 50.15433 | 8.49573 | 24635 ft | 473 kts | 135° |
| 2026-05-01 07:54 | 50.10518 | 8.56477 | 25302 ft | 479 kts | 135° |
| 2026-05-01 07:55 | 50.03294 | 8.67238 | 26223 ft | 485 kts | 130° |
| 2026-05-01 07:55 | 49.98900 | 8.75191 | 26805 ft | 488 kts | 128° |
| 2026-05-01 07:56 | 49.92328 | 8.87196 | 27346 ft | 490 kts | 128° |
| 2026-05-01 07:56 | 49.87861 | 8.95238 | 27378 ft | 494 kts | 128° |
| 2026-05-01 07:57 | 49.85621 | 8.99248 | 27374 ft | 493 kts | 128° |
| 2026-05-01 07:57 | 49.81120 | 9.07282 | 27369 ft | 496 kts | 128° |
| 2026-05-01 07:58 | 49.76588 | 9.15348 | 27360 ft | 497 kts | 128° |
| 2026-05-01 07:58 | 49.72074 | 9.23357 | 27358 ft | 497 kts | 128° |
| 2026-05-01 07:59 | 49.67544 | 9.31370 | 27355 ft | 497 kts | 128° |
| 2026-05-01 07:59 | 49.63015 | 9.39357 | 27354 ft | 497 kts | 128° |
| 2026-05-01 08:00 | 49.53919 | 9.55324 | 27351 ft | 496 kts | 128° |
| 2026-05-01 08:01 | 49.47111 | 9.67212 | 27364 ft | 497 kts | 129° |
| 2026-05-01 08:01 | 49.44818 | 9.71204 | 27364 ft | 497 kts | 129° |
| 2026-05-01 08:01 | 49.42522 | 9.75195 | 27360 ft | 497 kts | 129° |
| 2026-05-01 08:02 | 49.37976 | 9.83079 | 27367 ft | 497 kts | 129° |
| 2026-05-01 08:02 | 49.35685 | 9.87041 | 27354 ft | 497 kts | 129° |
| 2026-05-01 08:03 | 49.31091 | 9.94972 | 27333 ft | 497 kts | 129° |
| 2026-05-01 08:03 | 49.28800 | 9.98917 | 27325 ft | 497 kts | 129° |
| 2026-05-01 08:03 | 49.24218 | 10.06791 | 27307 ft | 497 kts | 129° |
| 2026-05-01 08:04 | 49.19635 | 10.14644 | 27290 ft | 497 kts | 129° |
| 2026-05-01 08:04 | 49.15044 | 10.22486 | 27276 ft | 497 kts | 129° |
| 2026-05-01 08:05 | 49.10375 | 10.30145 | 27264 ft | 498 kts | 130° |
| 2026-05-01 08:05 | 49.07959 | 10.34006 | 27260 ft | 498 kts | 130° |
| 2026-05-01 08:05 | 49.05602 | 10.37758 | 27256 ft | 498 kts | 130° |
| 2026-05-01 08:06 | 49.00809 | 10.45387 | 27244 ft | 497 kts | 130° |
| 2026-05-01 08:06 | 48.96071 | 10.52931 | 27236 ft | 497 kts | 130° |
| 2026-05-01 08:07 | 48.91305 | 10.60505 | 27228 ft | 497 kts | 130° |
| 2026-05-01 08:07 | 48.86207 | 10.67613 | 27143 ft | 503 kts | 141° |
| 2026-05-01 08:08 | 48.83328 | 10.70643 | 26656 ft | 507 kts | 143° |
| 2026-05-01 08:08 | 48.77541 | 10.76373 | 25629 ft | 491 kts | 144° |
| 2026-05-01 08:09 | 48.71888 | 10.81844 | 24592 ft | 476 kts | 144° |
| 2026-05-01 08:09 | 48.69098 | 10.84525 | 24071 ft | 469 kts | 144° |
| 2026-05-01 08:09 | 48.66540 | 10.87407 | 23552 ft | 456 kts | 133° |
| 2026-05-01 08:10 | 48.63108 | 10.94975 | 22526 ft | 431 kts | 109° |
| 2026-05-01 08:10 | 48.61191 | 11.03383 | 21500 ft | 419 kts | 104° |
| 2026-05-01 08:11 | 48.59457 | 11.11703 | 20282 ft | 414 kts | 104° |
| 2026-05-01 08:11 | 48.57770 | 11.19878 | 19006 ft | 411 kts | 104° |
| 2026-05-01 08:12 | 48.56088 | 11.28082 | 17626 ft | 408 kts | 104° |
| 2026-05-01 08:12 | 48.55260 | 11.32120 | 16848 ft | 403 kts | 104° |
| 2026-05-01 08:12 | 48.54038 | 11.39996 | 15359 ft | 372 kts | 89° |
| 2026-05-01 08:13 | 48.54076 | 11.43775 | 14597 ft | 362 kts | 85° |
| 2026-05-01 08:13 | 48.54223 | 11.47522 | 13845 ft | 353 kts | 84° |
| 2026-05-01 08:13 | 48.54558 | 11.54689 | 12385 ft | 339 kts | 84° |
| 2026-05-01 08:14 | 48.54736 | 11.58221 | 11628 ft | 333 kts | 84° |
| 2026-05-01 08:14 | 48.54915 | 11.61655 | 10860 ft | 328 kts | 84° |
| 2026-05-01 08:14 | 48.55098 | 11.65000 | 10146 ft | 323 kts | 84° |
| 2026-05-01 08:14 | 48.55289 | 11.68346 | 9410 ft | 318 kts | 84° |
| 2026-05-01 08:15 | 48.55325 | 11.71569 | 9007 ft | 302 kts | 98° |
| 2026-05-01 08:15 | 48.53463 | 11.76987 | 8420 ft | 293 kts | 136° |
| 2026-05-01 08:15 | 48.51767 | 11.78569 | 8323 ft | 286 kts | 159° |
| 2026-05-01 08:16 | 48.49781 | 11.78850 | 7964 ft | 293 kts | 187° |
| 2026-05-01 08:16 | 48.47900 | 11.77659 | 7500 ft | 302 kts | 216° |
| 2026-05-01 08:16 | 48.46572 | 11.75244 | 7030 ft | 307 kts | 245° |
| 2026-05-01 08:16 | 48.46028 | 11.72138 | 6574 ft | 308 kts | 262° |
| 2026-05-01 08:17 | 48.45777 | 11.68921 | 6101 ft | 310 kts | 264° |
| 2026-05-01 08:17 | 48.45564 | 11.65713 | 5630 ft | 311 kts | 264° |
| 2026-05-01 08:17 | 48.45355 | 11.62453 | 5161 ft | 313 kts | 264° |
| 2026-05-01 08:17 | 48.45149 | 11.59221 | 4782 ft | 311 kts | 264° |
| 2026-05-01 08:18 | 48.44946 | 11.56027 | 4396 ft | 309 kts | 264° |
| 2026-05-01 08:18 | 48.44553 | 11.49726 | 3992 ft | 291 kts | 264° |
| 2026-05-01 08:19 | 48.44204 | 11.43955 | 3952 ft | 264 kts | 264° |
| 2026-05-01 08:19 | 48.43639 | 11.41371 | 3963 ft | 264 kts | 231° |
| 2026-05-01 08:19 | 48.42319 | 11.39681 | 3958 ft | 241 kts | 197° |
| 2026-05-01 08:19 | 48.40689 | 11.39282 | 3967 ft | 232 kts | 176° |
| 2026-05-01 08:20 | 48.39094 | 11.39277 | 3967 ft | 228 kts | 175° |
| 2026-05-01 08:20 | 48.37540 | 11.39481 | 3959 ft | 220 kts | 153° |
| 2026-05-01 08:20 | 48.36401 | 11.40809 | 3967 ft | 202 kts | 120° |
| 2026-05-01 08:20 | 48.35739 | 11.42571 | 3956 ft | 187 kts | 115° |
| 2026-05-01 08:21 | 48.35155 | 11.44292 | 3958 ft | 186 kts | 115° |
| 2026-05-01 08:21 | 48.34569 | 11.46029 | 3959 ft | 186 kts | 115° |
| 2026-05-01 08:21 | 48.33987 | 11.47757 | 3956 ft | 184 kts | 115° |
| 2026-05-01 08:21 | 48.33402 | 11.49493 | 3958 ft | 186 kts | 115° |
| 2026-05-01 08:22 | 48.32822 | 11.51214 | 3956 ft | 185 kts | 115° |
| 2026-05-01 08:22 | 48.32296 | 11.52980 | 3939 ft | 184 kts | 98° |
| 2026-05-01 08:22 | 48.32460 | 11.54841 | 3962 ft | 185 kts | 78° |
| 2026-05-01 08:22 | 48.32649 | 11.56763 | 3856 ft | 187 kts | 85° |
| 2026-05-01 08:23 | 48.32781 | 11.58669 | 3639 ft | 181 kts | 84° |
| 2026-05-01 08:23 | 48.32919 | 11.60512 | 3422 ft | 168 kts | 84° |
| 2026-05-01 08:23 | 48.33050 | 11.62205 | 3208 ft | 161 kts | 84° |
| 2026-05-01 08:23 | 48.33179 | 11.63856 | 2988 ft | 159 kts | 84° |
| 2026-05-01 08:24 | 48.33305 | 11.65463 | 2760 ft | 150 kts | 84° |
| 2026-05-01 08:24 | 48.33424 | 11.66954 | 2618 ft | 143 kts | 84° |
| 2026-05-01 08:24 | 48.33541 | 11.68447 | 2396 ft | 141 kts | 84° |
| 2026-05-01 08:24 | 48.33655 | 11.69900 | 2207 ft | 141 kts | 85° |
| 2026-05-01 08:25 | 48.33770 | 11.71362 | 2025 ft | 142 kts | 85° |
| 2026-05-01 08:25 | 48.33885 | 11.72837 | 1840 ft | 142 kts | 85° |
| 2026-05-01 08:25 | 48.33995 | 11.74316 | 1623 ft | 144 kts | 86° |
| 2026-05-01 08:25 | 48.34132 | 11.75764 | 1491 ft | 139 kts | 85° |
| 2026-05-01 08:26 | 48.34221 | 11.77124 | 1487 ft | 111 kts | 82° |
| 2026-05-01 08:26 | 48.34287 | 11.77992 | 1484 ft | 27 kts | 83° |
| 2026-05-01 08:26 | 48.34333 | 11.78276 | 1483 ft | 23 kts | 48° |
| 2026-05-01 08:26 | 48.34428 | 11.78446 | 1482 ft | 14 kts | 54° |
| 2026-05-01 08:27 | 48.34484 | 11.78561 | 1482 ft | 12 kts | 53° |
| 2026-05-01 08:27 | 48.34534 | 11.78664 | 1481 ft | 11 kts | 54° |
| 2026-05-01 08:27 | 48.34577 | 11.78702 | 1481 ft | 5 kts | 342° |
| 2026-05-01 08:27 | 48.34607 | 11.78638 | 1481 ft | 10 kts | 281° |
| 2026-05-01 08:28 | 48.34599 | 11.78499 | 1482 ft | 16 kts | 262° |
| 2026-05-01 08:28 | 48.34581 | 11.78298 | 1482 ft | 21 kts | 264° |
| 2026-05-01 08:28 | 48.34566 | 11.78073 | 1483 ft | 21 kts | 264° |
| 2026-05-01 08:28 | 48.34549 | 11.77859 | 1483 ft | 19 kts | 262° |
| 2026-05-01 08:29 | 48.34534 | 11.77665 | 1484 ft | 16 kts | 264° |
| 2026-05-01 08:29 | 48.34527 | 11.77565 | 1484 ft | 0 kts | 263° |
| 2026-05-01 08:30 | 48.34527 | 11.77557 | 1484 ft | 3 kts | 263° |
| 2026-05-01 08:31 | 48.34525 | 11.77483 | 1484 ft | 8 kts | 284° |
| 2026-05-01 08:31 | 48.34573 | 11.77434 | 1484 ft | 11 kts | 349° |
| 2026-05-01 08:31 | 48.34676 | 11.77412 | 1484 ft | 16 kts | 354° |
| 2026-05-01 08:31 | 48.34779 | 11.77374 | 1484 ft | 13 kts | 310° |
| 2026-05-01 08:32 | 48.34788 | 11.77236 | 1484 ft | 12 kts | 264° |
| 2026-05-01 08:32 | 48.34779 | 11.77107 | 1485 ft | 10 kts | 263° |
| 2026-05-01 08:32 | 48.34770 | 11.76992 | 1485 ft | 9 kts | 263° |
| 2026-05-01 08:32 | 48.34768 | 11.76883 | 1485 ft | 5 kts | 290° |
| 2026-05-01 08:33 | 48.34793 | 11.76856 | 1485 ft | 4 kts | 1° |
| 2026-05-01 08:33 | 48.34819 | 11.76857 | 1485 ft | 4 kts | 359° |
| 2026-05-01 08:33 | 48.34847 | 11.76853 | 1485 ft | 1 kts | 354° |